sensor_id;sensor_type;location;lat;lon;timestamp;P1;durP1;ratioP1;P2;durP2;ratioP2
64367;SDS011;50692;53.314;-6.300;2023-06-10T00:00:58;15.55;;;8.65;;
64367;SDS011;50692;53.314;-6.300;2023-06-10T00:03:45;12.23;;;7.53;;
64367;SDS011;50692;53.314;-6.300;2023-06-10T00:06:30;15.52;;;7.82;;
64367;SDS011;50692;53.314;-6.300;2023-06-10T00:09:21;10.15;;;8.32;;
64367;SDS011;50692;53.314;-6.300;2023-06-10T00:12:07;13.20;;;8.15;;
64367;SDS011;50692;53.314;-6.300;2023-06-10T00:14:57;11.10;;;7.70;;
64367;SDS011;50692;53.314;-6.300;2023-06-10T00:17:43;10.93;;;8.00;;
64367;SDS011;50692;53.314;-6.300;2023-06-10T00:20:29;11.30;;;7.97;;
64367;SDS011;50692;53.314;-6.300;2023-06-10T00:23:16;11.35;;;8.48;;
64367;SDS011;50692;53.314;-6.300;2023-06-10T00:26:02;12.32;;;8.02;;
64367;SDS011;50692;53.314;-6.300;2023-06-10T00:28:47;14.43;;;8.27;;
64367;SDS011;50692;53.314;-6.300;2023-06-10T00:31:34;12.77;;;8.30;;
64367;SDS011;50692;53.314;-6.300;2023-06-10T00:34:20;13.70;;;8.70;;
64367;SDS011;50692;53.314;-6.300;2023-06-10T00:37:06;11.05;;;7.78;;
64367;SDS011;50692;53.314;-6.300;2023-06-10T00:39:52;10.60;;;7.30;;
64367;SDS011;50692;53.314;-6.300;2023-06-10T00:42:38;12.00;;;7.75;;
64367;SDS011;50692;53.314;-6.300;2023-06-10T00:45:24;12.60;;;8.27;;
64367;SDS011;50692;53.314;-6.300;2023-06-10T00:48:10;11.57;;;8.23;;
64367;SDS011;50692;53.314;-6.300;2023-06-10T00:50:56;12.18;;;8.30;;
64367;SDS011;50692;53.314;-6.300;2023-06-10T00:53:43;12.65;;;8.43;;
64367;SDS011;50692;53.314;-6.300;2023-06-10T00:56:30;11.10;;;7.97;;
64367;SDS011;50692;53.314;-6.300;2023-06-10T00:59:17;11.68;;;7.93;;
64367;SDS011;50692;53.314;-6.300;2023-06-10T01:02:03;10.52;;;7.57;;
64367;SDS011;50692;53.314;-6.300;2023-06-10T01:04:49;13.45;;;8.63;;
64367;SDS011;50692;53.314;-6.300;2023-06-10T01:07:50;14.55;;;9.18;;
64367;SDS011;50692;53.314;-6.300;2023-06-10T01:10:57;12.60;;;8.75;;
64367;SDS011;50692;53.314;-6.300;2023-06-10T01:13:45;12.48;;;9.05;;
64367;SDS011;50692;53.314;-6.300;2023-06-10T01:16:33;14.00;;;9.27;;
64367;SDS011;50692;53.314;-6.300;2023-06-10T01:19:22;12.23;;;8.57;;
64367;SDS011;50692;53.314;-6.300;2023-06-10T01:22:09;13.60;;;9.02;;
64367;SDS011;50692;53.314;-6.300;2023-06-10T01:24:56;12.00;;;8.45;;
64367;SDS011;50692;53.314;-6.300;2023-06-10T01:27:44;13.90;;;9.90;;
64367;SDS011;50692;53.314;-6.300;2023-06-10T01:30:39;13.68;;;8.75;;
64367;SDS011;50692;53.314;-6.300;2023-06-10T01:33:46;13.32;;;8.82;;
64367;SDS011;50692;53.314;-6.300;2023-06-10T01:36:37;11.60;;;9.00;;
64367;SDS011;50692;53.314;-6.300;2023-06-10T01:39:25;16.57;;;9.57;;
64367;SDS011;50692;53.314;-6.300;2023-06-10T01:42:12;14.00;;;9.70;;
64367;SDS011;50692;53.314;-6.300;2023-06-10T01:44:58;15.07;;;9.23;;
64367;SDS011;50692;53.314;-6.300;2023-06-10T01:47:44;14.43;;;9.50;;
64367;SDS011;50692;53.314;-6.300;2023-06-10T01:50:30;14.35;;;9.90;;
64367;SDS011;50692;53.314;-6.300;2023-06-10T01:53:16;16.73;;;10.25;;
64367;SDS011;50692;53.314;-6.300;2023-06-10T01:56:02;12.57;;;8.68;;
64367;SDS011;50692;53.314;-6.300;2023-06-10T01:58:48;15.73;;;9.68;;
64367;SDS011;50692;53.314;-6.300;2023-06-10T02:01:33;15.77;;;9.15;;
64367;SDS011;50692;53.314;-6.300;2023-06-10T02:04:19;15.52;;;10.25;;
64367;SDS011;50692;53.314;-6.300;2023-06-10T02:07:05;13.85;;;10.45;;
64367;SDS011;50692;53.314;-6.300;2023-06-10T02:09:51;14.15;;;10.07;;
64367;SDS011;50692;53.314;-6.300;2023-06-10T02:12:37;16.88;;;11.40;;
64367;SDS011;50692;53.314;-6.300;2023-06-10T02:15:22;18.45;;;10.77;;
64367;SDS011;50692;53.314;-6.300;2023-06-10T02:18:08;17.08;;;10.57;;
64367;SDS011;50692;53.314;-6.300;2023-06-10T02:20:55;19.75;;;11.52;;
64367;SDS011;50692;53.314;-6.300;2023-06-10T02:23:41;15.65;;;10.63;;
64367;SDS011;50692;53.314;-6.300;2023-06-10T02:26:27;18.58;;;11.82;;
64367;SDS011;50692;53.314;-6.300;2023-06-10T02:29:13;20.02;;;12.05;;
64367;SDS011;50692;53.314;-6.300;2023-06-10T02:31:59;17.65;;;11.27;;
64367;SDS011;50692;53.314;-6.300;2023-06-10T02:34:44;21.35;;;12.15;;
64367;SDS011;50692;53.314;-6.300;2023-06-10T02:37:31;18.88;;;11.98;;
64367;SDS011;50692;53.314;-6.300;2023-06-10T02:40:17;16.50;;;11.20;;
64367;SDS011;50692;53.314;-6.300;2023-06-10T02:43:02;20.70;;;12.60;;
64367;SDS011;50692;53.314;-6.300;2023-06-10T02:45:48;19.45;;;12.15;;
64367;SDS011;50692;53.314;-6.300;2023-06-10T02:48:40;18.63;;;11.50;;
64367;SDS011;50692;53.314;-6.300;2023-06-10T02:51:28;18.42;;;12.63;;
64367;SDS011;50692;53.314;-6.300;2023-06-10T02:54:14;19.63;;;12.85;;
64367;SDS011;50692;53.314;-6.300;2023-06-10T02:57:01;19.17;;;12.88;;
64367;SDS011;50692;53.314;-6.300;2023-06-10T02:59:47;17.83;;;11.80;;
64367;SDS011;50692;53.314;-6.300;2023-06-10T03:02:34;18.83;;;12.73;;
64367;SDS011;50692;53.314;-6.300;2023-06-10T03:05:23;18.15;;;12.45;;
64367;SDS011;50692;53.314;-6.300;2023-06-10T03:08:10;19.20;;;12.95;;
64367;SDS011;50692;53.314;-6.300;2023-06-10T03:10:55;18.08;;;13.27;;
64367;SDS011;50692;53.314;-6.300;2023-06-10T03:13:41;21.83;;;12.32;;
64367;SDS011;50692;53.314;-6.300;2023-06-10T03:16:27;21.25;;;13.05;;
64367;SDS011;50692;53.314;-6.300;2023-06-10T03:19:13;19.02;;;12.43;;
64367;SDS011;50692;53.314;-6.300;2023-06-10T03:22:12;22.73;;;13.73;;
64367;SDS011;50692;53.314;-6.300;2023-06-10T03:24:59;21.45;;;12.57;;
64367;SDS011;50692;53.314;-6.300;2023-06-10T03:27:45;24.52;;;12.25;;
64367;SDS011;50692;53.314;-6.300;2023-06-10T03:30:31;17.58;;;11.80;;
64367;SDS011;50692;53.314;-6.300;2023-06-10T03:33:16;15.02;;;11.38;;
64367;SDS011;50692;53.314;-6.300;2023-06-10T03:36:02;16.65;;;11.07;;
64367;SDS011;50692;53.314;-6.300;2023-06-10T03:38:48;17.05;;;11.20;;
64367;SDS011;50692;53.314;-6.300;2023-06-10T03:41:37;17.38;;;11.75;;
64367;SDS011;50692;53.314;-6.300;2023-06-10T03:44:24;17.25;;;11.50;;
64367;SDS011;50692;53.314;-6.300;2023-06-10T03:47:11;19.92;;;11.50;;
64367;SDS011;50692;53.314;-6.300;2023-06-10T03:49:58;19.30;;;11.85;;
64367;SDS011;50692;53.314;-6.300;2023-06-10T03:52:44;18.30;;;11.05;;
64367;SDS011;50692;53.314;-6.300;2023-06-10T03:55:31;18.05;;;11.57;;
64367;SDS011;50692;53.314;-6.300;2023-06-10T03:58:17;17.77;;;11.25;;
64367;SDS011;50692;53.314;-6.300;2023-06-10T04:01:03;21.08;;;11.70;;
64367;SDS011;50692;53.314;-6.300;2023-06-10T04:03:49;18.02;;;10.95;;
64367;SDS011;50692;53.314;-6.300;2023-06-10T04:06:36;17.42;;;10.40;;
64367;SDS011;50692;53.314;-6.300;2023-06-10T04:09:22;22.27;;;10.85;;
64367;SDS011;50692;53.314;-6.300;2023-06-10T04:12:08;15.38;;;11.35;;
64367;SDS011;50692;53.314;-6.300;2023-06-10T04:14:55;21.63;;;12.18;;
64367;SDS011;50692;53.314;-6.300;2023-06-10T04:17:41;18.33;;;11.15;;
64367;SDS011;50692;53.314;-6.300;2023-06-10T04:20:28;18.77;;;10.70;;
64367;SDS011;50692;53.314;-6.300;2023-06-10T04:23:14;17.50;;;11.02;;
64367;SDS011;50692;53.314;-6.300;2023-06-10T04:25:59;21.75;;;11.48;;
64367;SDS011;50692;53.314;-6.300;2023-06-10T04:28:45;17.00;;;11.23;;
64367;SDS011;50692;53.314;-6.300;2023-06-10T04:31:32;16.50;;;10.40;;
64367;SDS011;50692;53.314;-6.300;2023-06-10T04:34:17;18.45;;;10.60;;
64367;SDS011;50692;53.314;-6.300;2023-06-10T04:37:03;18.88;;;10.82;;
64367;SDS011;50692;53.314;-6.300;2023-06-10T04:39:49;20.33;;;11.13;;
64367;SDS011;50692;53.314;-6.300;2023-06-10T04:42:35;18.70;;;10.43;;
64367;SDS011;50692;53.314;-6.300;2023-06-10T04:45:22;16.15;;;10.43;;
64367;SDS011;50692;53.314;-6.300;2023-06-10T04:48:07;15.93;;;10.48;;
64367;SDS011;50692;53.314;-6.300;2023-06-10T04:50:53;17.52;;;9.57;;
64367;SDS011;50692;53.314;-6.300;2023-06-10T04:53:39;16.75;;;10.13;;
64367;SDS011;50692;53.314;-6.300;2023-06-10T04:56:25;13.52;;;9.75;;
64367;SDS011;50692;53.314;-6.300;2023-06-10T04:59:11;16.58;;;10.27;;
64367;SDS011;50692;53.314;-6.300;2023-06-10T05:01:57;15.05;;;9.60;;
64367;SDS011;50692;53.314;-6.300;2023-06-10T05:04:44;17.02;;;9.98;;
64367;SDS011;50692;53.314;-6.300;2023-06-10T05:07:30;14.55;;;9.90;;
64367;SDS011;50692;53.314;-6.300;2023-06-10T05:10:15;13.30;;;9.20;;
64367;SDS011;50692;53.314;-6.300;2023-06-10T05:13:01;13.80;;;9.77;;
64367;SDS011;50692;53.314;-6.300;2023-06-10T05:15:48;16.00;;;9.65;;
64367;SDS011;50692;53.314;-6.300;2023-06-10T05:18:34;15.15;;;9.45;;
64367;SDS011;50692;53.314;-6.300;2023-06-10T05:21:20;13.77;;;9.30;;
64367;SDS011;50692;53.314;-6.300;2023-06-10T05:24:07;15.77;;;9.63;;
64367;SDS011;50692;53.314;-6.300;2023-06-10T05:26:53;14.32;;;9.00;;
64367;SDS011;50692;53.314;-6.300;2023-06-10T05:29:38;18.17;;;9.50;;
64367;SDS011;50692;53.314;-6.300;2023-06-10T05:32:25;19.92;;;9.40;;
64367;SDS011;50692;53.314;-6.300;2023-06-10T05:35:11;13.95;;;9.52;;
64367;SDS011;50692;53.314;-6.300;2023-06-10T05:37:57;15.70;;;9.77;;
64367;SDS011;50692;53.314;-6.300;2023-06-10T05:40:42;15.70;;;9.07;;
64367;SDS011;50692;53.314;-6.300;2023-06-10T05:43:28;13.93;;;9.95;;
64367;SDS011;50692;53.314;-6.300;2023-06-10T05:46:14;15.30;;;8.73;;
64367;SDS011;50692;53.314;-6.300;2023-06-10T05:49:00;18.17;;;9.60;;
64367;SDS011;50692;53.314;-6.300;2023-06-10T05:51:45;13.95;;;9.25;;
64367;SDS011;50692;53.314;-6.300;2023-06-10T05:54:31;15.20;;;8.50;;
64367;SDS011;50692;53.314;-6.300;2023-06-10T05:57:17;13.93;;;8.95;;
64367;SDS011;50692;53.314;-6.300;2023-06-10T06:00:03;15.32;;;9.05;;
64367;SDS011;50692;53.314;-6.300;2023-06-10T06:02:50;13.38;;;8.40;;
64367;SDS011;50692;53.314;-6.300;2023-06-10T06:05:36;13.13;;;8.07;;
64367;SDS011;50692;53.314;-6.300;2023-06-10T06:08:23;13.13;;;8.23;;
64367;SDS011;50692;53.314;-6.300;2023-06-10T06:11:09;15.32;;;8.57;;
64367;SDS011;50692;53.314;-6.300;2023-06-10T06:13:55;12.98;;;8.45;;
64367;SDS011;50692;53.314;-6.300;2023-06-10T06:16:41;13.93;;;8.00;;
64367;SDS011;50692;53.314;-6.300;2023-06-10T06:19:27;16.55;;;8.60;;
64367;SDS011;50692;53.314;-6.300;2023-06-10T06:22:13;16.85;;;8.82;;
64367;SDS011;50692;53.314;-6.300;2023-06-10T06:24:59;15.13;;;7.90;;
64367;SDS011;50692;53.314;-6.300;2023-06-10T06:27:44;16.83;;;8.07;;
64367;SDS011;50692;53.314;-6.300;2023-06-10T06:30:30;18.02;;;8.85;;
64367;SDS011;50692;53.314;-6.300;2023-06-10T06:33:16;14.40;;;8.32;;
64367;SDS011;50692;53.314;-6.300;2023-06-10T06:36:02;15.15;;;8.18;;
64367;SDS011;50692;53.314;-6.300;2023-06-10T06:38:48;13.63;;;8.65;;
64367;SDS011;50692;53.314;-6.300;2023-06-10T06:41:34;14.38;;;8.43;;
64367;SDS011;50692;53.314;-6.300;2023-06-10T06:44:20;19.00;;;9.07;;
64367;SDS011;50692;53.314;-6.300;2023-06-10T06:47:05;13.95;;;8.20;;
64367;SDS011;50692;53.314;-6.300;2023-06-10T06:49:52;12.27;;;8.65;;
64367;SDS011;50692;53.314;-6.300;2023-06-10T06:52:37;15.20;;;8.57;;
64367;SDS011;50692;53.314;-6.300;2023-06-10T06:55:23;20.17;;;8.73;;
64367;SDS011;50692;53.314;-6.300;2023-06-10T06:58:09;14.82;;;8.63;;
64367;SDS011;50692;53.314;-6.300;2023-06-10T07:00:55;15.73;;;8.80;;
64367;SDS011;50692;53.314;-6.300;2023-06-10T07:03:41;10.95;;;8.40;;
64367;SDS011;50692;53.314;-6.300;2023-06-10T07:06:26;14.40;;;8.57;;
64367;SDS011;50692;53.314;-6.300;2023-06-10T07:09:12;15.30;;;8.48;;
64367;SDS011;50692;53.314;-6.300;2023-06-10T07:11:58;14.63;;;8.02;;
64367;SDS011;50692;53.314;-6.300;2023-06-10T07:14:44;16.40;;;8.52;;
64367;SDS011;50692;53.314;-6.300;2023-06-10T07:17:30;15.13;;;8.90;;
64367;SDS011;50692;53.314;-6.300;2023-06-10T07:20:16;13.40;;;8.50;;
64367;SDS011;50692;53.314;-6.300;2023-06-10T07:23:03;15.02;;;7.97;;
64367;SDS011;50692;53.314;-6.300;2023-06-10T07:25:49;20.63;;;9.02;;
64367;SDS011;50692;53.314;-6.300;2023-06-10T07:28:35;17.70;;;9.30;;
64367;SDS011;50692;53.314;-6.300;2023-06-10T07:31:21;14.27;;;8.02;;
64367;SDS011;50692;53.314;-6.300;2023-06-10T07:34:06;12.60;;;8.18;;
64367;SDS011;50692;53.314;-6.300;2023-06-10T07:36:52;13.25;;;8.48;;
64367;SDS011;50692;53.314;-6.300;2023-06-10T07:39:38;15.40;;;9.18;;
64367;SDS011;50692;53.314;-6.300;2023-06-10T07:42:24;16.92;;;8.20;;
64367;SDS011;50692;53.314;-6.300;2023-06-10T07:45:10;17.55;;;8.85;;
64367;SDS011;50692;53.314;-6.300;2023-06-10T07:47:56;15.88;;;8.75;;
64367;SDS011;50692;53.314;-6.300;2023-06-10T07:50:41;16.00;;;8.80;;
64367;SDS011;50692;53.314;-6.300;2023-06-10T07:53:27;14.00;;;8.00;;
64367;SDS011;50692;53.314;-6.300;2023-06-10T07:56:13;15.65;;;8.82;;
64367;SDS011;50692;53.314;-6.300;2023-06-10T07:58:59;21.08;;;9.25;;
64367;SDS011;50692;53.314;-6.300;2023-06-10T08:01:45;12.32;;;8.40;;
64367;SDS011;50692;53.314;-6.300;2023-06-10T08:04:31;16.02;;;8.77;;
64367;SDS011;50692;53.314;-6.300;2023-06-10T08:07:20;13.82;;;7.90;;
64367;SDS011;50692;53.314;-6.300;2023-06-10T08:10:07;13.00;;;8.18;;
64367;SDS011;50692;53.314;-6.300;2023-06-10T08:12:53;15.85;;;8.48;;
64367;SDS011;50692;53.314;-6.300;2023-06-10T08:15:39;14.27;;;8.93;;
64367;SDS011;50692;53.314;-6.300;2023-06-10T08:18:25;15.80;;;9.13;;
64367;SDS011;50692;53.314;-6.300;2023-06-10T08:21:11;13.35;;;8.80;;
64367;SDS011;50692;53.314;-6.300;2023-06-10T08:23:57;14.55;;;8.38;;
64367;SDS011;50692;53.314;-6.300;2023-06-10T08:26:43;17.42;;;8.63;;
64367;SDS011;50692;53.314;-6.300;2023-06-10T08:29:29;17.60;;;8.35;;
64367;SDS011;50692;53.314;-6.300;2023-06-10T08:32:16;12.68;;;7.85;;
64367;SDS011;50692;53.314;-6.300;2023-06-10T08:35:02;13.38;;;7.80;;
64367;SDS011;50692;53.314;-6.300;2023-06-10T08:37:48;14.30;;;8.82;;
64367;SDS011;50692;53.314;-6.300;2023-06-10T08:40:35;13.48;;;7.95;;
64367;SDS011;50692;53.314;-6.300;2023-06-10T08:43:22;17.27;;;8.13;;
64367;SDS011;50692;53.314;-6.300;2023-06-10T08:46:13;14.57;;;9.15;;
64367;SDS011;50692;53.314;-6.300;2023-06-10T08:49:01;17.23;;;8.55;;
64367;SDS011;50692;53.314;-6.300;2023-06-10T08:51:50;19.10;;;8.43;;
64367;SDS011;50692;53.314;-6.300;2023-06-10T08:54:53;17.95;;;8.98;;
64367;SDS011;50692;53.314;-6.300;2023-06-10T08:57:42;13.57;;;8.05;;
64367;SDS011;50692;53.314;-6.300;2023-06-10T09:00:30;17.02;;;8.52;;
64367;SDS011;50692;53.314;-6.300;2023-06-10T09:03:17;14.90;;;8.45;;
64367;SDS011;50692;53.314;-6.300;2023-06-10T09:06:07;14.60;;;8.82;;
64367;SDS011;50692;53.314;-6.300;2023-06-10T09:08:52;16.17;;;8.90;;
64367;SDS011;50692;53.314;-6.300;2023-06-10T09:11:39;17.40;;;8.50;;
64367;SDS011;50692;53.314;-6.300;2023-06-10T09:14:27;13.07;;;8.32;;
64367;SDS011;50692;53.314;-6.300;2023-06-10T09:17:13;13.20;;;8.35;;
64367;SDS011;50692;53.314;-6.300;2023-06-10T09:19:59;13.90;;;8.68;;
64367;SDS011;50692;53.314;-6.300;2023-06-10T09:22:48;17.92;;;8.50;;
64367;SDS011;50692;53.314;-6.300;2023-06-10T09:25:38;15.52;;;8.30;;
64367;SDS011;50692;53.314;-6.300;2023-06-10T09:28:24;14.38;;;8.07;;
64367;SDS011;50692;53.314;-6.300;2023-06-10T09:31:11;17.45;;;9.20;;
64367;SDS011;50692;53.314;-6.300;2023-06-10T09:34:10;13.90;;;8.40;;
64367;SDS011;50692;53.314;-6.300;2023-06-10T09:36:58;15.55;;;8.23;;
64367;SDS011;50692;53.314;-6.300;2023-06-10T09:39:43;18.92;;;8.40;;
64367;SDS011;50692;53.314;-6.300;2023-06-10T09:42:31;14.25;;;8.95;;
64367;SDS011;50692;53.314;-6.300;2023-06-10T09:45:21;12.43;;;8.70;;
64367;SDS011;50692;53.314;-6.300;2023-06-10T09:48:08;19.25;;;8.90;;
64367;SDS011;50692;53.314;-6.300;2023-06-10T09:50:54;14.98;;;9.15;;
64367;SDS011;50692;53.314;-6.300;2023-06-10T09:53:39;15.98;;;8.43;;
64367;SDS011;50692;53.314;-6.300;2023-06-10T09:56:34;18.02;;;9.30;;
64367;SDS011;50692;53.314;-6.300;2023-06-10T09:59:30;17.48;;;8.88;;
64367;SDS011;50692;53.314;-6.300;2023-06-10T10:02:20;10.45;;;8.43;;
64367;SDS011;50692;53.314;-6.300;2023-06-10T10:05:05;13.50;;;8.88;;
64367;SDS011;50692;53.314;-6.300;2023-06-10T10:07:51;14.82;;;9.07;;
64367;SDS011;50692;53.314;-6.300;2023-06-10T10:10:38;17.15;;;9.30;;
64367;SDS011;50692;53.314;-6.300;2023-06-10T10:13:24;13.93;;;9.43;;
64367;SDS011;50692;53.314;-6.300;2023-06-10T10:16:15;17.02;;;9.40;;
64367;SDS011;50692;53.314;-6.300;2023-06-10T10:19:04;17.05;;;9.77;;
64367;SDS011;50692;53.314;-6.300;2023-06-10T10:21:54;14.07;;;8.82;;
64367;SDS011;50692;53.314;-6.300;2023-06-10T10:33:36;23.85;;;10.82;;
64367;SDS011;50692;53.314;-6.300;2023-06-10T10:36:24;20.30;;;11.10;;
64367;SDS011;50692;53.314;-6.300;2023-06-10T10:39:11;18.38;;;10.32;;
64367;SDS011;50692;53.314;-6.300;2023-06-10T10:41:57;14.63;;;10.30;;
64367;SDS011;50692;53.314;-6.300;2023-06-10T10:44:44;15.65;;;9.93;;
64367;SDS011;50692;53.314;-6.300;2023-06-10T10:47:30;16.88;;;10.50;;
64367;SDS011;50692;53.314;-6.300;2023-06-10T10:50:17;18.98;;;9.80;;
64367;SDS011;50692;53.314;-6.300;2023-06-10T10:53:05;17.45;;;10.00;;
64367;SDS011;50692;53.314;-6.300;2023-06-10T10:59:05;15.13;;;10.05;;
64367;SDS011;50692;53.314;-6.300;2023-06-10T11:01:52;16.65;;;9.85;;
64367;SDS011;50692;53.314;-6.300;2023-06-10T11:04:39;18.55;;;9.65;;
64367;SDS011;50692;53.314;-6.300;2023-06-10T11:07:31;16.10;;;9.75;;
64367;SDS011;50692;53.314;-6.300;2023-06-10T11:10:17;15.85;;;9.93;;
64367;SDS011;50692;53.314;-6.300;2023-06-10T11:13:15;16.45;;;9.38;;
64367;SDS011;50692;53.314;-6.300;2023-06-10T11:16:01;15.90;;;10.00;;
64367;SDS011;50692;53.314;-6.300;2023-06-10T11:18:49;14.18;;;9.48;;
64367;SDS011;50692;53.314;-6.300;2023-06-10T11:21:57;16.20;;;9.82;;
64367;SDS011;50692;53.314;-6.300;2023-06-10T11:24:51;15.77;;;9.55;;
64367;SDS011;50692;53.314;-6.300;2023-06-10T11:27:37;18.60;;;10.45;;
64367;SDS011;50692;53.314;-6.300;2023-06-10T11:30:26;15.75;;;9.30;;
64367;SDS011;50692;53.314;-6.300;2023-06-10T11:33:16;16.67;;;10.02;;
64367;SDS011;50692;53.314;-6.300;2023-06-10T11:36:06;16.33;;;9.98;;
64367;SDS011;50692;53.314;-6.300;2023-06-10T11:38:56;17.65;;;9.60;;
64367;SDS011;50692;53.314;-6.300;2023-06-10T11:41:46;13.88;;;9.45;;
64367;SDS011;50692;53.314;-6.300;2023-06-10T11:44:33;12.80;;;9.60;;
64367;SDS011;50692;53.314;-6.300;2023-06-10T11:47:23;18.33;;;10.57;;
64367;SDS011;50692;53.314;-6.300;2023-06-10T11:50:08;14.55;;;9.77;;
64367;SDS011;50692;53.314;-6.300;2023-06-10T11:52:54;16.02;;;10.27;;
64367;SDS011;50692;53.314;-6.300;2023-06-10T11:55:41;17.13;;;10.43;;
64367;SDS011;50692;53.314;-6.300;2023-06-10T11:58:28;17.17;;;9.88;;
64367;SDS011;50692;53.314;-6.300;2023-06-10T12:01:19;16.48;;;10.60;;
64367;SDS011;50692;53.314;-6.300;2023-06-10T12:04:07;14.70;;;10.63;;
64367;SDS011;50692;53.314;-6.300;2023-06-10T12:06:54;14.45;;;10.05;;
64367;SDS011;50692;53.314;-6.300;2023-06-10T12:09:40;15.57;;;10.73;;
64367;SDS011;50692;53.314;-6.300;2023-06-10T12:12:26;14.00;;;9.93;;
64367;SDS011;50692;53.314;-6.300;2023-06-10T12:15:22;16.13;;;10.30;;
64367;SDS011;50692;53.314;-6.300;2023-06-10T12:18:15;15.02;;;9.95;;
64367;SDS011;50692;53.314;-6.300;2023-06-10T12:21:15;15.73;;;9.77;;
64367;SDS011;50692;53.314;-6.300;2023-06-10T12:24:10;15.35;;;10.10;;
64367;SDS011;50692;53.314;-6.300;2023-06-10T12:26:56;15.82;;;10.50;;
64367;SDS011;50692;53.314;-6.300;2023-06-10T12:29:50;15.10;;;9.70;;
64367;SDS011;50692;53.314;-6.300;2023-06-10T12:32:42;15.43;;;10.27;;
64367;SDS011;50692;53.314;-6.300;2023-06-10T12:35:30;12.55;;;9.23;;
64367;SDS011;50692;53.314;-6.300;2023-06-10T12:38:23;15.07;;;10.18;;
64367;SDS011;50692;53.314;-6.300;2023-06-10T12:41:09;19.20;;;9.98;;
64367;SDS011;50692;53.314;-6.300;2023-06-10T12:43:57;16.35;;;10.50;;
64367;SDS011;50692;53.314;-6.300;2023-06-10T12:46:43;17.70;;;11.02;;
64367;SDS011;50692;53.314;-6.300;2023-06-10T12:49:29;19.90;;;10.38;;
64367;SDS011;50692;53.314;-6.300;2023-06-10T12:52:15;16.50;;;10.50;;
64367;SDS011;50692;53.314;-6.300;2023-06-10T12:55:00;21.08;;;10.95;;
64367;SDS011;50692;53.314;-6.300;2023-06-10T12:57:48;20.10;;;10.65;;
64367;SDS011;50692;53.314;-6.300;2023-06-10T13:00:34;14.07;;;9.95;;
64367;SDS011;50692;53.314;-6.300;2023-06-10T13:03:21;17.35;;;10.52;;
64367;SDS011;50692;53.314;-6.300;2023-06-10T13:06:07;16.90;;;10.52;;
64367;SDS011;50692;53.314;-6.300;2023-06-10T13:08:53;17.63;;;10.93;;
64367;SDS011;50692;53.314;-6.300;2023-06-10T13:11:39;15.30;;;9.63;;
64367;SDS011;50692;53.314;-6.300;2023-06-10T13:14:25;16.67;;;10.18;;
64367;SDS011;50692;53.314;-6.300;2023-06-10T13:17:11;13.80;;;10.45;;
64367;SDS011;50692;53.314;-6.300;2023-06-10T13:19:57;15.50;;;9.77;;
64367;SDS011;50692;53.314;-6.300;2023-06-10T13:22:42;15.27;;;10.65;;
64367;SDS011;50692;53.314;-6.300;2023-06-10T13:25:28;15.50;;;9.85;;
64367;SDS011;50692;53.314;-6.300;2023-06-10T13:28:14;17.05;;;9.93;;
64367;SDS011;50692;53.314;-6.300;2023-06-10T13:31:00;14.07;;;9.90;;
64367;SDS011;50692;53.314;-6.300;2023-06-10T13:33:46;20.10;;;11.15;;
64367;SDS011;50692;53.314;-6.300;2023-06-10T13:36:32;16.00;;;9.85;;
64367;SDS011;50692;53.314;-6.300;2023-06-10T13:39:18;20.75;;;11.15;;
64367;SDS011;50692;53.314;-6.300;2023-06-10T13:42:04;13.55;;;10.30;;
64367;SDS011;50692;53.314;-6.300;2023-06-10T13:44:53;17.02;;;10.40;;
64367;SDS011;50692;53.314;-6.300;2023-06-10T13:47:39;18.58;;;10.20;;
64367;SDS011;50692;53.314;-6.300;2023-06-10T13:50:24;16.58;;;9.85;;
64367;SDS011;50692;53.314;-6.300;2023-06-10T13:53:11;16.17;;;10.80;;
64367;SDS011;50692;53.314;-6.300;2023-06-10T13:55:57;15.00;;;10.60;;
64367;SDS011;50692;53.314;-6.300;2023-06-10T13:58:43;20.58;;;11.27;;
64367;SDS011;50692;53.314;-6.300;2023-06-10T14:01:29;15.15;;;10.27;;
64367;SDS011;50692;53.314;-6.300;2023-06-10T14:04:14;16.70;;;10.30;;
64367;SDS011;50692;53.314;-6.300;2023-06-10T14:07:01;18.00;;;11.13;;
64367;SDS011;50692;53.314;-6.300;2023-06-10T14:09:46;15.80;;;9.95;;
64367;SDS011;50692;53.314;-6.300;2023-06-10T14:12:32;14.45;;;10.18;;
64367;SDS011;50692;53.314;-6.300;2023-06-10T14:15:18;14.27;;;10.40;;
64367;SDS011;50692;53.314;-6.300;2023-06-10T14:18:04;19.60;;;10.35;;
64367;SDS011;50692;53.314;-6.300;2023-06-10T14:20:50;16.73;;;10.50;;
64367;SDS011;50692;53.314;-6.300;2023-06-10T14:23:36;20.35;;;10.95;;
64367;SDS011;50692;53.314;-6.300;2023-06-10T14:26:22;15.70;;;9.90;;
64367;SDS011;50692;53.314;-6.300;2023-06-10T14:29:07;15.52;;;10.60;;
64367;SDS011;50692;53.314;-6.300;2023-06-10T14:31:54;14.95;;;10.35;;
64367;SDS011;50692;53.314;-6.300;2023-06-10T14:34:40;22.83;;;12.75;;
64367;SDS011;50692;53.314;-6.300;2023-06-10T14:37:27;19.40;;;11.23;;
64367;SDS011;50692;53.314;-6.300;2023-06-10T14:40:13;15.38;;;10.95;;
64367;SDS011;50692;53.314;-6.300;2023-06-10T14:42:59;16.63;;;11.50;;
64367;SDS011;50692;53.314;-6.300;2023-06-10T14:45:46;16.17;;;11.05;;
64367;SDS011;50692;53.314;-6.300;2023-06-10T14:48:32;15.13;;;11.57;;
64367;SDS011;50692;53.314;-6.300;2023-06-10T14:51:18;16.67;;;11.52;;
64367;SDS011;50692;53.314;-6.300;2023-06-10T14:54:06;15.50;;;11.32;;
64367;SDS011;50692;53.314;-6.300;2023-06-10T14:56:52;19.23;;;12.77;;
64367;SDS011;50692;53.314;-6.300;2023-06-10T14:59:37;21.23;;;12.90;;
64367;SDS011;50692;53.314;-6.300;2023-06-10T15:02:23;19.63;;;13.30;;
64367;SDS011;50692;53.314;-6.300;2023-06-10T15:05:09;19.10;;;12.75;;
64367;SDS011;50692;53.314;-6.300;2023-06-10T15:07:55;21.50;;;13.75;;
64367;SDS011;50692;53.314;-6.300;2023-06-10T15:10:41;19.55;;;12.95;;
64367;SDS011;50692;53.314;-6.300;2023-06-10T15:13:27;20.67;;;14.52;;
64367;SDS011;50692;53.314;-6.300;2023-06-10T15:16:13;21.45;;;13.55;;
64367;SDS011;50692;53.314;-6.300;2023-06-10T15:19:00;20.42;;;13.48;;
64367;SDS011;50692;53.314;-6.300;2023-06-10T15:21:46;23.98;;;14.85;;
64367;SDS011;50692;53.314;-6.300;2023-06-10T15:24:32;28.23;;;15.27;;
64367;SDS011;50692;53.314;-6.300;2023-06-10T15:27:17;20.90;;;15.48;;
64367;SDS011;50692;53.314;-6.300;2023-06-10T15:30:03;25.00;;;15.98;;
64367;SDS011;50692;53.314;-6.300;2023-06-10T15:32:50;24.10;;;16.23;;
64367;SDS011;50692;53.314;-6.300;2023-06-10T15:35:36;22.17;;;16.17;;
64367;SDS011;50692;53.314;-6.300;2023-06-10T15:38:22;27.02;;;15.82;;
64367;SDS011;50692;53.314;-6.300;2023-06-10T15:41:08;22.88;;;16.05;;
64367;SDS011;50692;53.314;-6.300;2023-06-10T15:43:54;25.17;;;16.33;;
64367;SDS011;50692;53.314;-6.300;2023-06-10T15:46:40;23.80;;;16.08;;
64367;SDS011;50692;53.314;-6.300;2023-06-10T15:49:25;22.52;;;15.60;;
64367;SDS011;50692;53.314;-6.300;2023-06-10T15:52:11;23.58;;;16.42;;
64367;SDS011;50692;53.314;-6.300;2023-06-10T15:54:57;24.52;;;15.48;;
64367;SDS011;50692;53.314;-6.300;2023-06-10T15:57:43;23.13;;;15.07;;
64367;SDS011;50692;53.314;-6.300;2023-06-10T16:00:29;23.75;;;14.73;;
64367;SDS011;50692;53.314;-6.300;2023-06-10T16:03:15;22.20;;;14.90;;
64367;SDS011;50692;53.314;-6.300;2023-06-10T16:06:01;25.90;;;15.48;;
64367;SDS011;50692;53.314;-6.300;2023-06-10T16:08:47;22.33;;;15.25;;
64367;SDS011;50692;53.314;-6.300;2023-06-10T16:11:33;26.08;;;15.32;;
64367;SDS011;50692;53.314;-6.300;2023-06-10T16:14:19;23.77;;;14.77;;
64367;SDS011;50692;53.314;-6.300;2023-06-10T16:17:05;22.15;;;13.98;;
64367;SDS011;50692;53.314;-6.300;2023-06-10T16:19:51;24.98;;;15.45;;
64367;SDS011;50692;53.314;-6.300;2023-06-10T16:22:36;22.92;;;15.15;;